Time;durP1;ratioP1;P1;durP2;ratioP2;P2;SDS_P1;SDS_P2;PMS_P1;PMS_P2;Temp;Humidity;BMP_temperature;BMP_pressure;BME280_temperature;BME280_humidity;BME280_pressure;Samples;Min_cycle;Max_cycle;Signal;HPM_P1;HPM_P2
2022/06/26 00:01:50;;;;;;;0.30;0.30;;;;;;;-148.56;100.00;61375.16;5004631;28;20041;-34
2022/06/26 00:04:16;;;;;;;0.32;0.32;;;;;;;-148.56;100.00;61375.16;5004330;28;20144;-36
2022/06/26 00:06:41;;;;;;;0.30;0.30;;;;;;;-148.56;100.00;61375.16;5005795;28;20030;-38
2022/06/26 00:09:06;;;;;;;0.30;0.30;;;;;;;-148.56;100.00;61375.16;5005757;28;20017;-36
2022/06/26 00:11:32;;;;;;;0.30;0.30;;;;;;;-148.56;100.00;61375.16;5007947;28;20867;-35
2022/06/26 00:13:57;;;;;;;0.28;0.28;;;;;;;-148.56;100.00;61375.16;5005245;28;20104;-38
2022/06/26 00:16:23;;;;;;;0.25;0.25;;;;;;;-148.56;100.00;61375.16;5006642;28;20026;-33
2022/06/26 00:18:48;;;;;;;0.30;0.30;;;;;;;-148.56;100.00;61375.16;5008453;28;20088;-35
2022/06/26 00:21:14;;;;;;;0.30;0.20;;;;;;;-148.56;100.00;61375.16;5007121;28;20036;-34
2022/06/26 00:23:39;;;;;;;0.40;0.40;;;;;;;-148.56;100.00;61375.16;5005326;28;20387;-35
2022/06/26 00:26:05;;;;;;;0.30;0.30;;;;;;;-148.56;100.00;61375.16;5008658;28;20037;-37
2022/06/26 00:28:30;;;;;;;0.30;0.30;;;;;;;-148.56;100.00;61375.16;5003173;28;20061;-32
2022/06/26 00:30:56;;;;;;;0.30;0.30;;;;;;;-148.56;100.00;61375.16;5007528;28;20030;-37
2022/06/26 00:33:21;;;;;;;0.52;0.52;;;;;;;-148.56;100.00;61375.16;5007069;28;20048;-34
2022/06/26 00:35:46;;;;;;;0.30;0.30;;;;;;;-148.56;100.00;61375.16;5006172;28;20782;-32
2022/06/26 00:38:12;;;;;;;0.35;0.35;;;;;;;-148.56;100.00;61375.16;4999232;28;20850;-32
2022/06/26 00:40:38;;;;;;;0.40;0.40;;;;;;;-148.56;100.00;61375.16;5007913;28;20025;-34
2022/06/26 00:43:05;;;;;;;0.30;0.30;;;;;;;-148.56;100.00;61375.16;5007751;28;20080;-37
2022/06/26 00:45:30;;;;;;;0.30;0.30;;;;;;;-148.56;100.00;61375.16;5007084;28;20138;-36
2022/06/26 00:47:55;;;;;;;0.20;0.20;;;;;;;-148.56;100.00;61375.16;5008801;28;20029;-34
2022/06/26 00:50:21;;;;;;;0.40;0.40;;;;;;;-148.56;100.00;61375.16;5006055;28;20030;-34
2022/06/26 00:52:46;;;;;;;0.30;0.30;;;;;;;-148.56;100.00;61375.16;5005708;28;20029;-35
2022/06/26 00:55:12;;;;;;;0.30;0.30;;;;;;;-148.56;100.00;61375.16;5008131;28;20160;-36
2022/06/26 00:57:37;;;;;;;0.40;0.40;;;;;;;-148.56;100.00;61375.16;4995455;28;20784;-34
2022/06/26 01:00:07;;;;;;;0.22;0.22;;;;;;;-148.56;100.00;61375.16;5010853;28;20543;-32
2022/06/26 01:02:33;;;;;;;0.30;0.30;;;;;;;-148.56;100.00;61375.16;5005941;28;20026;-32
2022/06/26 01:04:58;;;;;;;0.30;0.30;;;;;;;-148.56;100.00;61375.16;5003845;28;20523;-34
2022/06/26 01:07:24;;;;;;;0.35;0.30;;;;;;;-148.56;100.00;61375.16;5010131;28;21500;-37
2022/06/26 01:09:49;;;;;;;0.22;0.22;;;;;;;-148.56;100.00;61375.16;4994951;28;20041;-35
2022/06/26 01:12:15;;;;;;;0.40;0.40;;;;;;;-148.56;100.00;61375.16;5009650;28;20030;-33
2022/06/26 01:14:40;;;;;;;0.30;0.30;;;;;;;-148.56;100.00;61375.16;5001251;28;20034;-31
2022/06/26 01:17:05;;;;;;;0.40;0.40;;;;;;;-148.56;100.00;61375.16;5011030;28;20147;-34
2022/06/26 01:19:31;;;;;;;1.02;0.30;;;;;;;-148.56;100.00;61375.16;4993231;28;20492;-36
2022/06/26 01:21:56;;;;;;;0.28;0.28;;;;;;;-148.56;100.00;61375.16;5008557;28;21925;-33
2022/06/26 01:24:22;;;;;;;0.20;0.20;;;;;;;-148.56;100.00;61375.16;5004629;28;20072;-32
2022/06/26 01:26:47;;;;;;;0.43;0.43;;;;;;;-148.56;100.00;61375.16;5008066;28;20064;-33
2022/06/26 01:29:13;;;;;;;0.30;0.30;;;;;;;-148.56;100.00;61375.16;5010500;28;20056;-33
2022/06/26 01:31:38;;;;;;;0.30;0.30;;;;;;;-148.56;100.00;61375.16;5009812;28;20016;-32
2022/06/26 01:34:04;;;;;;;0.30;0.30;;;;;;;-148.56;100.00;61375.16;5006202;28;21972;-33
2022/06/26 01:36:30;;;;;;;0.30;0.30;;;;;;;-148.56;100.00;61375.16;4975847;28;20368;-35
2022/06/26 01:38:55;;;;;;;0.30;0.30;;;;;;;-148.56;100.00;61375.16;5007813;28;20144;-32
2022/06/26 01:41:21;;;;;;;0.25;0.25;;;;;;;-148.56;100.00;61375.16;5007547;28;20637;-34
2022/06/26 01:43:46;;;;;;;0.35;0.32;;;;;;;-148.56;100.00;61375.16;5006960;28;20030;-35
2022/06/26 01:46:11;;;;;;;0.20;0.20;;;;;;;-148.56;100.00;61375.16;5007323;28;20079;-33
2022/06/26 01:48:38;;;;;;;0.30;0.30;;;;;;;-148.56;100.00;61375.16;5008184;28;20083;-34
2022/06/26 01:51:04;;;;;;;0.30;0.30;;;;;;;-148.56;100.00;61375.16;5009740;28;20026;-33
2022/06/26 01:53:30;;;;;;;0.20;0.20;;;;;;;-148.56;100.00;61375.16;5010849;28;20068;-32
2022/06/26 01:55:55;;;;;;;0.47;0.30;;;;;;;-148.56;100.00;61375.16;5012159;28;20805;-31
2022/06/26 01:58:21;;;;;;;0.20;0.20;;;;;;;-148.56;100.00;61375.16;5009252;28;20038;-31
2022/06/26 02:00:47;;;;;;;0.30;0.20;;;;;;;-148.56;100.00;61375.16;5008098;28;20088;-33
2022/06/26 02:03:12;;;;;;;0.30;0.30;;;;;;;-148.56;100.00;61375.16;5005356;28;20029;-34
2022/06/26 02:05:38;;;;;;;0.40;0.40;;;;;;;-148.56;100.00;61375.16;5009555;28;20144;-31
2022/06/26 02:08:03;;;;;;;0.30;0.30;;;;;;;-148.56;100.00;61375.16;5010225;28;20022;-31
2022/06/26 02:15:58;;;;;;;0.40;0.40;;;;;;;-148.56;100.00;61375.16;5006180;28;20791;-33
2022/06/26 02:18:24;;;;;;;0.28;0.28;;;;;;;-148.56;100.00;61375.16;5005626;28;20029;-31
2022/06/26 02:20:49;;;;;;;0.20;0.20;;;;;;;-148.56;100.00;61375.16;5007026;28;20052;-36
2022/06/26 02:23:15;;;;;;;0.30;0.30;;;;;;;-148.56;100.00;61375.16;5003704;28;20085;-36
2022/06/26 02:25:41;;;;;;;0.30;0.30;;;;;;;-148.56;100.00;61375.16;5008439;28;20766;-34
2022/06/26 02:28:06;;;;;;;0.40;0.40;;;;;;;-148.56;100.00;61375.16;5005887;28;20030;-36
2022/06/26 02:30:32;;;;;;;0.40;0.30;;;;;;;-148.56;100.00;61375.16;5006862;28;20535;-34
2022/06/26 02:32:57;;;;;;;0.20;0.20;;;;;;;-148.56;100.00;61375.16;5005688;28;20037;-31
2022/06/26 02:35:23;;;;;;;0.20;0.20;;;;;;;-148.56;100.00;61375.16;5008099;28;20056;-34
2022/06/26 02:37:49;;;;;;;0.30;0.30;;;;;;;-148.56;100.00;61375.16;5008308;28;20037;-32
2022/06/26 02:40:14;;;;;;;0.80;0.30;;;;;;;-148.56;100.00;61375.16;5005659;28;20037;-34
2022/06/26 02:42:40;;;;;;;0.20;0.20;;;;;;;-148.56;100.00;61375.16;5009099;28;20148;-31
2022/06/26 02:45:06;;;;;;;0.25;0.22;;;;;;;-148.56;100.00;61375.16;5002741;28;20033;-34
2022/06/26 02:47:31;;;;;;;0.20;0.20;;;;;;;-148.56;100.00;61375.16;5010052;28;20022;-33
2022/06/26 02:49:57;;;;;;;0.30;0.30;;;;;;;-148.56;100.00;61375.16;5009522;28;20107;-34
2022/06/26 02:52:22;;;;;;;0.22;0.22;;;;;;;-148.56;100.00;61375.16;5008646;28;20049;-35
2022/06/26 02:54:48;;;;;;;2.05;0.35;;;;;;;-148.56;100.00;61375.16;5007387;28;20091;-37
2022/06/26 02:57:13;;;;;;;0.38;0.38;;;;;;;-148.56;100.00;61375.16;5010960;28;20106;-31
2022/06/26 02:59:39;;;;;;;0.30;0.30;;;;;;;-148.56;100.00;61375.16;5009101;28;20843;-32
2022/06/26 03:02:04;;;;;;;0.38;0.38;;;;;;;-148.56;100.00;61375.16;5005785;28;20029;-36
2022/06/26 03:04:29;;;;;;;0.25;0.25;;;;;;;-148.56;100.00;61375.16;5006539;28;20030;-31
2022/06/26 03:06:55;;;;;;;0.20;0.20;;;;;;;-148.56;100.00;61375.16;5009786;28;20770;-31
2022/06/26 03:09:20;;;;;;;0.40;0.30;;;;;;;-148.56;100.00;61375.16;5008527;28;20036;-36
2022/06/26 03:11:46;;;;;;;0.30;0.30;;;;;;;-148.56;100.00;61375.16;5007549;28;20029;-32
2022/06/26 03:14:11;;;;;;;0.25;0.25;;;;;;;-148.56;100.00;61375.16;5005796;28;20882;-35
2022/06/26 03:16:36;;;;;;;0.30;0.30;;;;;;;-148.56;100.00;61375.16;5010618;28;20519;-34
2022/06/26 03:19:02;;;;;;;0.22;0.22;;;;;;;-148.56;100.00;61375.16;5006759;28;20059;-32
2022/06/26 03:21:27;;;;;;;0.20;0.20;;;;;;;-148.56;100.00;61375.16;5005285;28;20052;-33
2022/06/26 03:24:02;;;;;;;0.25;0.25;;;;;;;-148.56;100.00;61375.16;5006151;28;20432;-34
2022/06/26 03:26:35;;;;;;;0.30;0.30;;;;;;;-148.56;100.00;61375.16;5009059;28;20033;-35
2022/06/26 03:29:00;;;;;;;0.73;0.30;;;;;;;-148.56;100.00;61375.16;5010139;28;20751;-33
2022/06/26 03:31:26;;;;;;;1.05;0.40;;;;;;;-148.56;100.00;61375.16;5007245;28;20049;-34
2022/06/26 03:33:52;;;;;;;0.30;0.30;;;;;;;-148.56;100.00;61375.16;5006200;28;20079;-34
2022/06/26 03:36:17;;;;;;;0.20;0.20;;;;;;;-148.56;100.00;61375.16;5002320;28;20750;-34
2022/06/26 03:38:43;;;;;;;0.20;0.20;;;;;;;-148.56;100.00;61375.16;5007564;28;20038;-34
2022/06/26 03:41:10;;;;;;;0.30;0.30;;;;;;;-148.56;100.00;61375.16;5009516;28;20030;-31
2022/06/26 03:43:35;;;;;;;0.20;0.20;;;;;;;-148.56;100.00;61375.16;5005179;28;20041;-35
2022/06/26 03:46:01;;;;;;;0.20;0.20;;;;;;;-148.56;100.00;61375.16;5003098;28;20597;-35
2022/06/26 03:48:26;;;;;;;1.10;0.38;;;;;;;-148.56;100.00;61375.16;5007795;28;20028;-33
2022/06/26 03:50:52;;;;;;;0.30;0.30;;;;;;;-148.56;100.00;61375.16;5006028;28;20051;-34
2022/06/26 03:53:17;;;;;;;0.43;0.32;;;;;;;-148.56;100.00;61375.16;5009267;28;20037;-36
2022/06/26 03:55:43;;;;;;;0.57;0.30;;;;;;;-148.56;100.00;61375.16;5007632;28;20029;-35
2022/06/26 03:58:08;;;;;;;0.35;0.35;;;;;;;-148.56;100.00;61375.16;5008876;28;20088;-33
2022/06/26 04:00:34;;;;;;;0.30;0.30;;;;;;;-148.56;100.00;61375.16;5008704;28;20128;-36
2022/06/26 04:03:02;;;;;;;0.40;0.30;;;;;;;-148.56;100.00;61375.16;5008487;28;20156;-30
2022/06/26 04:05:28;;;;;;;0.30;0.30;;;;;;;-148.56;100.00;61375.16;5005178;28;20734;-33
2022/06/26 04:07:53;;;;;;;0.30;0.30;;;;;;;-148.56;100.00;61375.16;5008753;28;20039;-34
2022/06/26 04:10:19;;;;;;;0.30;0.30;;;;;;;-148.56;100.00;61375.16;5009702;28;20452;-33
2022/06/26 04:12:44;;;;;;;0.32;0.32;;;;;;;-148.56;100.00;61375.16;5008397;28;20037;-36
2022/06/26 04:15:10;;;;;;;0.30;0.30;;;;;;;-148.56;100.00;61375.16;5005044;28;20040;-32
2022/06/26 04:17:35;;;;;;;0.30;0.30;;;;;;;-148.56;100.00;61375.16;5009131;28;20025;-35
2022/06/26 04:20:00;;;;;;;0.20;0.20;;;;;;;-148.56;100.00;61375.16;5008280;28;20025;-31
2022/06/26 04:22:26;;;;;;;0.20;0.20;;;;;;;-148.56;100.00;61375.16;5005849;28;20040;-31
2022/06/26 04:24:51;;;;;;;3.60;0.20;;;;;;;-148.56;100.00;61375.16;5008101;28;20076;-31
2022/06/26 04:27:16;;;;;;;0.50;0.43;;;;;;;-148.56;100.00;61375.16;5014547;28;20703;-31
2022/06/26 04:29:42;;;;;;;0.20;0.20;;;;;;;-148.56;100.00;61375.16;5013383;28;20021;-34
2022/06/26 04:32:08;;;;;;;0.35;0.35;;;;;;;-148.56;100.00;61375.16;5010804;28;20026;-36
2022/06/26 04:34:33;;;;;;;0.30;0.30;;;;;;;-148.56;100.00;61375.16;5012197;28;20021;-35
2022/06/26 04:36:58;;;;;;;0.30;0.30;;;;;;;-148.56;100.00;61375.16;5016661;28;20030;-32
2022/06/26 04:39:24;;;;;;;0.30;0.30;;;;;;;-148.56;100.00;61375.16;5014862;28;20040;-37
2022/06/26 04:41:49;;;;;;;0.20;0.20;;;;;;;-148.56;100.00;61375.16;5012027;28;20052;-34
2022/06/26 04:44:15;;;;;;;0.30;0.30;;;;;;;-148.56;100.00;61375.16;5011361;28;20037;-33
2022/06/26 04:46:41;;;;;;;0.30;0.30;;;;;;;-148.56;100.00;61375.16;5009781;28;20289;-34
2022/06/26 04:49:07;;;;;;;0.30;0.30;;;;;;;-148.56;100.00;61375.16;5012398;28;20416;-34
2022/06/26 04:51:35;;;;;;;0.20;0.20;;;;;;;-148.56;100.00;61375.16;5013613;28;20053;-34
2022/06/26 04:54:01;;;;;;;0.25;0.25;;;;;;;-148.56;100.00;61375.16;5011325;28;20044;-33
2022/06/26 04:56:27;;;;;;;0.20;0.20;;;;;;;-148.56;100.00;61375.16;5013961;28;20025;-34
2022/06/26 04:58:53;;;;;;;0.38;0.38;;;;;;;-148.56;100.00;61375.16;5017562;28;20394;-32
2022/06/26 05:01:18;;;;;;;0.10;0.10;;;;;;;-148.56;100.00;61375.16;5014209;28;20101;-33
2022/06/26 05:03:44;;;;;;;0.30;0.30;;;;;;;-148.56;100.00;61375.16;5009764;28;20029;-34
2022/06/26 05:06:09;;;;;;;0.30;0.30;;;;;;;-148.56;100.00;61375.16;5010351;28;20684;-33
2022/06/26 05:08:34;;;;;;;0.17;0.17;;;;;;;-148.56;100.00;61375.16;5013022;28;20029;-33
2022/06/26 05:11:00;;;;;;;0.30;0.30;;;;;;;-148.56;100.00;61375.16;5012868;28;20026;-36
2022/06/26 05:13:25;;;;;;;0.30;0.30;;;;;;;-148.56;100.00;61375.16;5012516;28;20728;-34
2022/06/26 05:15:51;;;;;;;0.22;0.22;;;;;;;-148.56;100.00;61375.16;5012093;28;20029;-33
2022/06/26 05:18:16;;;;;;;0.28;0.28;;;;;;;-148.56;100.00;61375.16;4993298;28;20866;-30
2022/06/26 05:20:42;;;;;;;0.82;0.20;;;;;;;-148.56;100.00;61375.16;4992389;28;20037;-37
2022/06/26 05:23:09;;;;;;;0.20;0.20;;;;;;;-148.56;100.00;61375.16;4984944;28;20025;-32
2022/06/26 05:25:34;;;;;;;0.30;0.30;;;;;;;-148.56;100.00;61375.16;4991043;28;20962;-38
2022/06/26 05:28:00;;;;;;;0.38;0.30;;;;;;;-148.56;100.00;61375.16;4995660;28;20037;-38
2022/06/26 05:30:25;;;;;;;0.30;0.30;;;;;;;-148.56;100.00;61375.16;4995784;28;20037;-33
2022/06/26 05:32:50;;;;;;;0.20;0.20;;;;;;;-148.56;100.00;61375.16;4994472;28;20049;-34
2022/06/26 05:35:16;;;;;;;0.30;0.30;;;;;;;-148.56;100.00;61375.16;4993914;28;20037;-36
2022/06/26 05:37:41;;;;;;;0.20;0.20;;;;;;;-148.56;100.00;61375.16;5009392;28;20553;-32
2022/06/26 05:40:07;;;;;;;0.20;0.20;;;;;;;-148.56;100.00;61375.16;5009194;28;20033;-36
2022/06/26 05:42:33;;;;;;;0.20;0.20;;;;;;;-148.56;100.00;61375.16;5008043;28;20496;-33
2022/06/26 05:44:58;;;;;;;0.10;0.10;;;;;;;-148.56;100.00;61375.16;5007391;28;20026;-35
2022/06/26 05:47:23;;;;;;;0.30;0.30;;;;;;;-148.56;100.00;61375.16;5010084;28;20049;-31
2022/06/26 05:49:49;;;;;;;0.20;0.20;;;;;;;-148.56;100.00;61375.16;5009282;28;20030;-35
2022/06/26 05:52:14;;;;;;;0.28;0.28;;;;;;;-148.56;100.00;61375.16;5009000;28;20029;-33
2022/06/26 05:54:39;;;;;;;0.30;0.30;;;;;;;-148.56;100.00;61375.16;5006417;28;20048;-33
2022/06/26 05:57:05;;;;;;;0.20;0.20;;;;;;;-148.56;100.00;61375.16;5010558;28;20026;-36
2022/06/26 05:59:30;;;;;;;0.30;0.30;;;;;;;-148.56;100.00;61375.16;5010060;28;20029;-34
2022/06/26 06:01:56;;;;;;;0.20;0.20;;;;;;;-148.56;100.00;61375.16;5006679;28;20817;-34
2022/06/26 06:04:21;;;;;;;0.28;0.28;;;;;;;-148.56;100.00;61375.16;5005161;28;20037;-37
2022/06/26 06:06:46;;;;;;;0.20;0.20;;;;;;;-148.56;100.00;61375.16;5003598;28;20096;-34
2022/06/26 06:09:12;;;;;;;0.30;0.30;;;;;;;-148.56;100.00;61375.16;5004517;28;20029;-34
2022/06/26 06:11:37;;;;;;;0.55;0.30;;;;;;;-148.56;100.00;61375.16;5006323;28;20033;-33
2022/06/26 06:14:02;;;;;;;0.30;0.30;;;;;;;-148.56;100.00;61375.16;5007453;28;20031;-34
2022/06/26 06:16:28;;;;;;;0.20;0.20;;;;;;;-148.56;100.00;61375.16;5007688;28;20036;-38
2022/06/26 06:18:53;;;;;;;0.35;0.35;;;;;;;-148.56;100.00;61375.16;5006860;28;20037;-32
2022/06/26 06:21:19;;;;;;;0.30;0.22;;;;;;;-148.56;100.00;61375.16;5008006;28;20079;-30
2022/06/26 06:23:44;;;;;;;0.30;0.30;;;;;;;-148.56;100.00;61375.16;5007639;28;20104;-36
2022/06/26 06:26:10;;;;;;;0.30;0.30;;;;;;;-148.56;100.00;61375.16;5005382;28;20794;-34
2022/06/26 06:28:36;;;;;;;0.43;0.30;;;;;;;-148.56;100.00;61375.16;5010140;28;20041;-36
2022/06/26 06:31:01;;;;;;;0.30;0.30;;;;;;;-148.56;100.00;61375.16;5004587;28;20034;-33
2022/06/26 06:33:27;;;;;;;0.30;0.20;;;;;;;-148.56;100.00;61375.16;5008582;28;20027;-33
2022/06/26 06:35:55;;;;;;;0.40;0.40;;;;;;;-148.56;100.00;61375.16;4980328;28;20022;-37
2022/06/26 06:38:21;;;;;;;0.38;0.30;;;;;;;-148.56;100.00;61375.16;4962812;28;20085;-36
2022/06/26 06:40:47;;;;;;;0.30;0.30;;;;;;;-148.56;100.00;61375.16;4967723;28;20068;-36
2022/06/26 06:43:12;;;;;;;0.20;0.20;;;;;;;-148.56;100.00;61375.16;4969621;28;20954;-32
2022/06/26 06:45:38;;;;;;;0.22;0.22;;;;;;;-148.56;100.00;61375.16;4965685;28;20799;-36
2022/06/26 06:48:04;;;;;;;0.10;0.10;;;;;;;-148.56;100.00;61375.16;4965538;28;20030;-37
2022/06/26 06:50:29;;;;;;;0.30;0.30;;;;;;;-148.56;100.00;61375.16;4964222;28;20790;-34
2022/06/26 06:52:54;;;;;;;0.30;0.30;;;;;;;-148.56;100.00;61375.16;4965053;28;20033;-30
2022/06/26 06:55:20;;;;;;;0.30;0.25;;;;;;;-148.56;100.00;61375.16;4965572;28;20041;-36
2022/06/26 06:57:45;;;;;;;0.20;0.20;;;;;;;-148.56;100.00;61375.16;4964851;28;20033;-36
2022/06/26 07:00:11;;;;;;;0.30;0.30;;;;;;;-148.56;100.00;61375.16;4964095;28;20627;-36
2022/06/26 07:02:37;;;;;;;0.10;0.10;;;;;;;-148.56;100.00;61375.16;4967601;28;21213;-36
2022/06/26 07:05:04;;;;;;;0.30;0.30;;;;;;;-148.56;100.00;61375.16;4967652;28;20164;-35
2022/06/26 07:07:30;;;;;;;0.30;0.30;;;;;;;-148.56;100.00;61375.16;4971218;28;20040;-33
2022/06/26 07:09:55;;;;;;;0.38;0.38;;;;;;;-148.56;100.00;61375.16;4973721;28;20033;-35
2022/06/26 07:12:20;;;;;;;0.32;0.32;;;;;;;-148.56;100.00;61375.16;4973917;28;20071;-38
2022/06/26 07:14:46;;;;;;;0.30;0.30;;;;;;;-148.56;100.00;61375.16;4974617;28;20595;-37
2022/06/26 07:17:11;;;;;;;0.20;0.20;;;;;;;-148.56;100.00;61375.16;4975373;28;20037;-36
2022/06/26 07:19:37;;;;;;;0.30;0.30;;;;;;;-148.56;100.00;61375.16;4969358;28;20064;-37
2022/06/26 07:22:02;;;;;;;0.20;0.20;;;;;;;-148.56;100.00;61375.16;4974612;28;20028;-40
2022/06/26 07:24:27;;;;;;;0.22;0.22;;;;;;;-148.56;100.00;61375.16;4972054;28;20026;-35
2022/06/26 07:26:53;;;;;;;0.40;0.20;;;;;;;-148.56;100.00;61375.16;4960882;28;20029;-37
2022/06/26 07:29:18;;;;;;;0.40;0.30;;;;;;;-148.56;100.00;61375.16;4961204;28;20040;-35
2022/06/26 07:31:44;;;;;;;0.30;0.30;;;;;;;-148.56;100.00;61375.16;4958479;28;20512;-35
2022/06/26 07:34:12;;;;;;;0.40;0.40;;;;;;;-148.56;100.00;61375.16;4970580;28;20037;-40
2022/06/26 07:36:38;;;;;;;0.30;0.30;;;;;;;-148.56;100.00;61375.16;5002388;28;20053;-36
2022/06/26 07:39:03;;;;;;;0.20;0.20;;;;;;;-148.56;100.00;61375.16;5007594;28;20900;-33
2022/06/26 07:41:29;;;;;;;0.20;0.20;;;;;;;-148.56;100.00;61375.16;5007497;28;20073;-38
2022/06/26 07:43:54;;;;;;;0.30;0.30;;;;;;;-148.56;100.00;61375.16;5007507;28;20037;-34
2022/06/26 07:46:20;;;;;;;0.15;0.15;;;;;;;-148.56;100.00;61375.16;5006241;28;20080;-34
2022/06/26 07:48:45;;;;;;;0.30;0.30;;;;;;;-148.56;100.00;61375.16;5002181;28;20060;-35
2022/06/26 07:51:10;;;;;;;0.28;0.28;;;;;;;-148.56;100.00;61375.16;5009809;28;20957;-29
2022/06/26 07:53:36;;;;;;;0.20;0.20;;;;;;;-148.56;100.00;61375.16;5008037;28;20041;-36
2022/06/26 07:56:03;;;;;;;0.30;0.30;;;;;;;-148.56;100.00;61375.16;5004218;28;20037;-30
2022/06/26 07:58:29;;;;;;;0.40;0.30;;;;;;;-148.56;100.00;61375.16;4990368;28;20072;-31
2022/06/26 08:00:54;;;;;;;0.20;0.20;;;;;;;-148.56;100.00;61375.16;4991836;28;20495;-34
2022/06/26 08:03:19;;;;;;;0.25;0.25;;;;;;;-148.56;100.00;61375.16;5005288;28;20508;-28
2022/06/26 08:05:46;;;;;;;0.30;0.30;;;;;;;-148.56;100.00;61375.16;5014008;28;20056;-32
2022/06/26 08:08:12;;;;;;;0.30;0.30;;;;;;;-148.56;100.00;61375.16;5003183;28;20029;-32
2022/06/26 08:10:37;;;;;;;0.55;0.30;;;;;;;-148.56;100.00;61375.16;5009883;28;20128;-34
2022/06/26 08:13:06;;;;;;;0.20;0.20;;;;;;;-148.56;100.00;61375.16;5011186;28;20061;-33
2022/06/26 08:15:31;;;;;;;0.30;0.30;;;;;;;-148.56;100.00;61375.16;5005121;28;20243;-32
2022/06/26 08:17:57;;;;;;;1.48;0.40;;;;;;;-148.56;100.00;61375.16;5002111;28;20126;-34
2022/06/26 08:20:22;;;;;;;0.30;0.30;;;;;;;-148.56;100.00;61375.16;5004478;28;20119;-34
2022/06/26 08:22:48;;;;;;;0.20;0.20;;;;;;;-148.56;100.00;61375.16;5006324;28;20025;-32
2022/06/26 08:25:13;;;;;;;0.20;0.20;;;;;;;-148.56;100.00;61375.16;5003542;28;20037;-32
2022/06/26 08:27:38;;;;;;;0.28;0.28;;;;;;;-148.56;100.00;61375.16;5005026;28;20057;-37
2022/06/26 08:30:04;;;;;;;0.30;0.30;;;;;;;-148.56;100.00;61375.16;5007042;28;20040;-35
2022/06/26 08:32:30;;;;;;;0.20;0.20;;;;;;;-148.56;100.00;61375.16;5009191;28;20053;-36
2022/06/26 08:34:55;;;;;;;0.32;0.32;;;;;;;-148.56;100.00;61375.16;5005195;28;20049;-34
2022/06/26 08:37:21;;;;;;;0.20;0.20;;;;;;;-148.56;100.00;61375.16;5006190;28;20037;-32
2022/06/26 08:39:46;;;;;;;0.30;0.30;;;;;;;-148.56;100.00;61375.16;5007779;28;20041;-36
2022/06/26 08:42:11;;;;;;;0.52;0.30;;;;;;;-148.56;100.00;61375.16;5006834;28;20151;-34
2022/06/26 08:44:44;;;;;;;0.20;0.20;;;;;;;-148.56;100.00;61375.16;5002879;28;20543;-37
2022/06/26 08:47:10;;;;;;;0.30;0.30;;;;;;;-148.56;100.00;61375.16;5006847;28;20026;-33
2022/06/26 08:49:35;;;;;;;0.30;0.30;;;;;;;-148.56;100.00;61375.16;5006675;28;20127;-39
2022/06/26 08:52:01;;;;;;;0.25;0.20;;;;;;;-148.56;100.00;61375.16;5002076;28;20808;-36
2022/06/26 08:54:28;;;;;;;0.35;0.28;;;;;;;-148.56;100.00;61375.16;5004802;28;20043;-33
2022/06/26 08:56:53;;;;;;;0.30;0.30;;;;;;;-148.56;100.00;61375.16;5007554;28;20026;-35
2022/06/26 08:59:19;;;;;;;0.43;0.30;;;;;;;-148.56;100.00;61375.16;5009814;28;20083;-37
2022/06/26 09:01:44;;;;;;;0.52;0.40;;;;;;;-148.56;100.00;61375.16;5004949;28;20037;-35
2022/06/26 09:04:11;;;;;;;0.30;0.30;;;;;;;-148.56;100.00;61375.16;5004311;28;20103;-33
2022/06/26 09:06:36;;;;;;;0.25;0.25;;;;;;;-148.56;100.00;61375.16;5002798;28;20604;-32
2022/06/26 09:09:25;;;;;;;0.20;0.20;;;;;;;-148.56;100.00;61375.16;5003543;28;20041;-35
2022/06/26 09:11:55;;;;;;;0.20;0.20;;;;;;;-148.56;100.00;61375.16;5009569;28;20040;-35
2022/06/26 09:14:21;;;;;;;0.20;0.20;;;;;;;-148.56;100.00;61375.16;5008742;28;20578;-37
2022/06/26 09:16:47;;;;;;;0.30;0.30;;;;;;;-148.56;100.00;61375.16;5010203;28;20128;-33
2022/06/26 09:19:18;;;;;;;0.30;0.30;;;;;;;-148.56;100.00;61375.16;5010659;28;20492;-38
2022/06/26 09:21:47;;;;;;;0.30;0.30;;;;;;;-148.56;100.00;61375.16;5006435;28;20608;-33
2022/06/26 09:24:14;;;;;;;0.10;0.10;;;;;;;-148.56;100.00;61375.16;5007560;28;20045;-30
2022/06/26 09:26:40;;;;;;;0.20;0.20;;;;;;;-148.56;100.00;61375.16;5005915;28;20069;-33
2022/06/26 09:29:13;;;;;;;0.20;0.20;;;;;;;-148.56;100.00;61375.16;5011256;28;20108;-33
2022/06/26 09:31:38;;;;;;;0.20;0.20;;;;;;;-148.56;100.00;61375.16;5008690;28;20709;-35
2022/06/26 09:34:05;;;;;;;0.30;0.20;;;;;;;-148.56;100.00;61375.16;5005893;28;20044;-34
2022/06/26 09:36:30;;;;;;;0.30;0.30;;;;;;;-148.56;100.00;61375.16;5002318;28;20044;-34
2022/06/26 09:38:56;;;;;;;0.20;0.20;;;;;;;-148.56;100.00;61375.16;5007160;28;20029;-34
2022/06/26 09:41:32;;;;;;;0.30;0.30;;;;;;;-148.56;100.00;61375.16;5012440;28;20037;-35
2022/06/26 09:43:57;;;;;;;0.20;0.20;;;;;;;-148.56;100.00;61375.16;5004818;28;20088;-35
2022/06/26 09:46:28;;;;;;;0.43;0.40;;;;;;;-148.56;100.00;61375.16;5006041;28;20796;-34
2022/06/26 09:48:55;;;;;;;0.25;0.20;;;;;;;-148.56;100.00;61375.16;5009501;28;20590;-36
2022/06/26 09:51:21;;;;;;;0.32;0.30;;;;;;;-148.56;100.00;61375.16;4986654;28;20026;-31
2022/06/26 09:53:46;;;;;;;0.30;0.30;;;;;;;-148.56;100.00;61375.16;5022321;28;20041;-30
2022/06/26 09:56:12;;;;;;;0.40;0.40;;;;;;;-148.56;100.00;61375.16;5006730;28;20840;-34
2022/06/26 09:58:37;;;;;;;0.20;0.20;;;;;;;-148.56;100.00;61375.16;5009490;28;20044;-35
2022/06/26 10:06:31;;;;;;;0.40;0.40;;;;;;;-148.56;100.00;61375.16;5006834;28;20056;-31
2022/06/26 10:09:01;;;;;;;0.25;0.25;;;;;;;-148.56;100.00;61375.16;5005902;28;20029;-31
2022/06/26 10:11:28;;;;;;;0.30;0.30;;;;;;;-148.56;100.00;61375.16;5004903;28;20032;-31
2022/06/26 10:14:05;;;;;;;0.40;0.40;;;;;;;-148.56;100.00;61375.16;5004997;28;20025;-34
2022/06/26 10:16:30;;;;;;;0.20;0.20;;;;;;;-148.56;100.00;61375.16;4998777;28;20028;-34
2022/06/26 10:19:14;;;;;;;0.30;0.30;;;;;;;-148.56;100.00;61375.16;5007139;28;20674;-32
2022/06/26 10:21:39;;;;;;;0.32;0.32;;;;;;;-148.56;100.00;61375.16;5004123;28;20096;-32
2022/06/26 10:24:05;;;;;;;0.40;0.38;;;;;;;-148.56;100.00;61375.16;5005213;28;20030;-30
2022/06/26 10:26:31;;;;;;;0.43;0.38;;;;;;;-148.56;100.00;61375.16;5006197;28;20117;-31
2022/06/26 10:29:02;;;;;;;0.30;0.30;;;;;;;-148.56;100.00;61375.16;5008385;28;20060;-35
2022/06/26 10:31:48;;;;;;;0.32;0.32;;;;;;;-148.56;100.00;61375.16;5010292;28;20030;-34
2022/06/26 10:34:20;;;;;;;0.30;0.30;;;;;;;-148.56;100.00;61375.16;5005090;28;20041;-36
2022/06/26 10:37:04;;;;;;;0.40;0.40;;;;;;;-148.56;100.00;61375.16;5009497;28;20430;-33
2022/06/26 10:39:38;;;;;;;0.40;0.40;;;;;;;-148.56;100.00;61375.16;5009559;28;20029;-30
2022/06/26 10:44:58;;;;;;;0.75;0.70;;;;;;;-148.56;100.00;61375.16;5009220;28;20032;-32
2022/06/26 10:47:23;;;;;;;0.40;0.40;;;;;;;-148.56;100.00;61375.16;5029532;28;20032;-34
2022/06/26 10:49:52;;;;;;;1.17;0.50;;;;;;;-148.56;100.00;61375.16;5011226;28;20035;-32
2022/06/26 10:52:25;;;;;;;0.30;0.30;;;;;;;-148.56;100.00;61375.16;5007455;28;20037;-32
2022/06/26 10:54:52;;;;;;;0.52;0.40;;;;;;;-148.56;100.00;61375.16;5003891;28;20029;-37
2022/06/26 10:57:17;;;;;;;0.40;0.40;;;;;;;-148.56;100.00;61375.16;4995041;28;20069;-34
2022/06/26 10:59:43;;;;;;;0.40;0.40;;;;;;;-148.56;100.00;61375.16;4988800;28;20164;-34
2022/06/26 11:02:12;;;;;;;0.40;0.40;;;;;;;-148.56;100.00;61375.16;5005387;28;20808;-30
2022/06/26 11:04:48;;;;;;;0.38;0.38;;;;;;;-148.56;100.00;61375.16;5005968;28;20029;-35
2022/06/26 11:07:14;;;;;;;0.40;0.30;;;;;;;-148.56;100.00;61375.16;5004916;28;20064;-34
2022/06/26 11:09:40;;;;;;;0.50;0.50;;;;;;;-148.56;100.00;61375.16;5005103;28;20101;-34
2022/06/26 11:12:05;;;;;;;0.30;0.30;;;;;;;-148.56;100.00;61375.16;5010350;28;20036;-36
2022/06/26 11:14:31;;;;;;;0.38;0.38;;;;;;;-148.56;100.00;61375.16;5006470;28;20126;-33
2022/06/26 11:16:56;;;;;;;0.40;0.40;;;;;;;-148.56;100.00;61375.16;5005278;28;20033;-32
2022/06/26 11:19:28;;;;;;;0.28;0.28;;;;;;;-148.56;100.00;61375.16;5005680;28;20021;-32